Nearby METAR Reports

 

KSJC - San Jose, California, USA
Distance from station: NØ 14km
Oppdatert: 09/08/2020 12:53
Klart
Klart
 Vind fra NV
Vind: NV 7 km/h
Temperatur: 17°C
Duggpunkt: 13°C
Fuktighet: 77%
Barometer: 1012.9 hPa
Clouds: Klart
Visibility: 16 km
2020/08/09 10:53 KSJC 091053Z AUTO 32004KT 10SM CLR 17/13 A2991 RMK AO2 SLP129 T01670133
KNUQ - Moffett Nas/Mtn, California, USA
Distance from station: N 14km
Oppdatert: 09/08/2020 12:50

 Vind fra VNV
Vind: VNV 6 km/h
Temperatur: 17°C
Duggpunkt: 15°C
Fuktighet: 88%
Barometer: 1013.2 hPa
Visibility: 16 km
2020/08/09 10:50 KNUQ 091050Z AUTO 29003KT 10SM 17/15 A2992 RMK AO2
 
KPAO - Palo Alto, California, USA
Distance from station: NNV 23km
Oppdatert: 09/08/2020 03:47
NOT Current
Klart
Klart
 Vind fra NNV
Vind: NNV 22 km/h
Temperatur: 21°C
Duggpunkt: 15°C
Fuktighet: 69%
Barometer: 1012.9 hPa
Clouds: Klart
Visibility: 16 km
2020/08/09 01:47 KPAO 090147Z 33012KT 10SM SKC 21/15 A2991 RMK LAST
KRHV - San Jose/Reid, California, USA
Distance from station: ØNØ 19km
Oppdatert: 09/08/2020 04:50
NOT Current
Klart
Klart
 Vind fra VNV
Vind: VNV 11 km/h
Temperatur: 24°C
Duggpunkt: 14°C
Fuktighet: 54%
Barometer: 1012.9 hPa
Clouds: Klart
Visibility: 16 km
2020/08/09 02:50 KRHV 090250Z 29006KT 10SM SKC 24/14 A2991
 
KOAK - Oakland, California, USA
Distance from station: NNV 50km
Oppdatert: 09/08/2020 12:53
Delvis skyet
Delvis skyet
 Vind fra NNV
Vind: NNV 7 km/h
Temperatur: 16°C
Duggpunkt: 13°C
Fuktighet: 83%
Barometer: 1013.2 hPa
Clouds: Delvis skyet
Visibility: 16 km
Cloud details: Delvis skyet 244 m
2020/08/09 10:53 KOAK 091053Z 33004KT 10SM SCT008 16/13 A2992 RMK AO2 SLP132 T01560133
KSQL - San Carlos Airpo, California, USA
Distance from station: NV 34km
Oppdatert: 09/08/2020 12:55
Delvis skyet
Delvis skyet
 Vind fra calm
Vind: Stille
Temperatur: 16°C
Duggpunkt: 13°C
Fuktighet: 83%
Barometer: 1013.5 hPa
Clouds: Delvis skyet
Visibility: 16 km
Cloud details: Delvis skyet 335 m
2020/08/09 10:55 KSQL 091055Z AUTO 00000KT 10SM SCT011 16/13 A2993 RMK AO2
 
KSFO - San Francisco, California, USA
Distance from station: NV 49km
Oppdatert: 09/08/2020 12:56
Few Clouds
Few Clouds
 Vind fra V
Vind: V 9 km/h
Temperatur: 14°C
Duggpunkt: 13°C
Fuktighet: 94%
Barometer: 1012.9 hPa
Clouds: Few Clouds
Visibility: 16 km
Cloud details: Few Clouds 274 m
2020/08/09 10:56 KSFO 091056Z 28005KT 10SM FEW009 14/13 A2991 RMK AO2 SLP129 T01440128
KE16 - San Martin, California, USA
Distance from station: ØSØ 43km
Oppdatert: 09/08/2020 12:50
Klart
Klart
 Vind fra calm
Vind: Stille
Temperatur: 14°C
Duggpunkt: 11°C
Fuktighet: 82%
Barometer: 1014.2 hPa
Clouds: Klart
Visibility: 16 km
2020/08/09 10:50 KE16 091050Z AUTO 00000KT 10SM CLR 14/11 A2995 RMK AO2 PWINO PNO
 
KWVI - Watsonville, California, USA
Distance from station: SSØ 44km
Oppdatert: 09/08/2020 12:53
Tåke, Overskyet
Tåke, Overskyet
 Vind fra calm
Vind: Stille
Temperatur: 13°C
Duggpunkt: 13°C
Fuktighet: 100%
Barometer: 1013.9 hPa
Oversikt: Tåke
Clouds: Overskyet
Visibility: 0.4 km
Cloud details: Overskyet 61 m
2020/08/09 10:53 KWVI 091053Z AUTO 00000KT 1/4SM FG VV002 13/13 A2994 RMK AO2 SLP137 T01330128 $
KHAF - Half Moon Bay, California, USA
Distance from station: VNV 50km
Oppdatert: 09/08/2020 12:55
Tåke, Overskyet
Tåke, Overskyet
 Vind fra S
Vind: S 11 km/h
Temperatur: 13°C
Duggpunkt: 13°C
Fuktighet: 100%
Barometer: 1013.5 hPa
Oversikt: Tåke
Clouds: Overskyet
Visibility: 0.8 km
Cloud details: Overskyet 61 m
2020/08/09 10:55 KHAF 091055Z AUTO 18006KT 1/2SM FG OVC002 13/13 A2993 RMK AO2
 
KHWD - Hayward, California, USA
Distance from station: N 44km
Oppdatert: 09/08/2020 12:54
Klart
Klart
 Vind fra NV
Vind: NV 6 km/h
Temperatur: 16°C
Duggpunkt: 12°C
Fuktighet: 77%
Barometer: 1012.9 hPa
Clouds: Klart
Visibility: 16 km
2020/08/09 10:54 KHWD 091054Z AUTO 32003KT 10SM CLR 16/12 A2991 RMK AO2 SLP137 T01610122
KLVK - Livermore, California, USA
Distance from station: NNØ 51km
Oppdatert: 09/08/2020 12:53
Klart
Klart
 Vind fra calm
Vind: Stille
Temperatur: 18°C
Duggpunkt: 12°C
Fuktighet: 68%
Barometer: 1012.5 hPa
Clouds: Klart
Visibility: 16 km
2020/08/09 10:53 KLVK 091053Z AUTO 00000KT 10SM CLR 18/12 A2990 RMK AO2 SLP120 T01780117